Time;durP1;ratioP1;P1;durP2;ratioP2;P2;SDS_P1;SDS_P2;PMS_P1;PMS_P2;Temp;Humidity;BMP_temperature;BMP_pressure;BME280_temperature;BME280_humidity;BME280_pressure;Samples;Min_cycle;Max_cycle;Signal;HPM_P1;HPM_P2
2024/01/30 00:02:19;;;;;;;;;;;12.30;47.30;;;12.47;50.20;101916.31;5036528;28;20016;-37
2024/01/30 00:04:47;;;;;;;;;;;12.30;47.30;;;12.48;49.56;101917.22;5034580;28;19925;-36
2024/01/30 00:07:15;;;;;;;;;;;12.30;47.30;;;12.48;49.70;101917.22;5035768;28;20271;-33
2024/01/30 00:09:43;;;;;;;;;;;12.30;47.30;;;12.48;50.20;101917.22;5036072;28;19929;-32
2024/01/30 00:12:12;;;;;;;;;;;12.30;47.30;;;12.46;50.15;101914.47;5036158;28;19925;-33
2024/01/30 00:14:42;;;;;;;;;;;12.30;47.30;;;12.48;49.85;101917.22;5035915;28;19929;-33
2024/01/30 00:17:10;;;;;;;;;;;12.30;47.40;;;12.45;49.68;101914.28;5035859;28;19929;-35
2024/01/30 00:19:38;;;;;;;;;;;12.30;47.30;;;12.47;50.13;101921.34;5035779;28;20012;-34
2024/01/30 00:22:07;;;;;;;;;;;12.30;47.30;;;12.43;49.75;101919.09;5036597;28;19929;-33
2024/01/30 00:24:35;;;;;;;;;;;12.30;47.30;;;12.47;50.16;101925.44;5034676;28;20444;-33
2024/01/30 00:27:03;;;;;;;;;;;12.30;47.30;;;12.43;50.15;101919.09;5027686;28;20016;-33
2024/01/30 00:29:33;;;;;;;;;;;12.30;47.30;;;12.35;50.41;101899.47;5035557;28;19932;-34
2024/01/30 00:32:01;;;;;;;;;;;12.30;47.40;;;12.46;49.93;101924.53;5035821;28;19936;-35
2024/01/30 00:34:29;;;;;;;;;;;12.30;47.30;;;12.45;50.14;101921.84;5035069;28;19971;-37
2024/01/30 00:36:58;;;;;;;;;;;12.30;47.40;;;12.46;49.88;101923.63;5036075;28;19925;-36
2024/01/30 00:39:26;;;;;;;;;;;12.30;47.30;;;12.43;49.73;101918.19;5036393;28;19932;-36
2024/01/30 00:41:53;;;;;;;;;;;12.30;47.30;;;12.45;49.69;101920.22;5035804;28;20003;-33
2024/01/30 00:44:21;;;;;;;;;;;12.30;47.30;;;12.45;49.92;101916.81;5033943;28;19980;-33
2024/01/30 00:46:51;;;;;;;;;;;12.30;47.30;;;12.46;49.71;101919.50;5041869;28;20444;-32
2024/01/30 00:49:19;;;;;;;;;;;12.30;47.30;;;12.45;49.50;101921.84;5045054;28;19964;-36
2024/01/30 00:51:47;;;;;;;;;;;12.30;47.30;;;12.45;49.42;101919.31;5044417;28;19925;-34
2024/01/30 00:54:15;;;;;;;;;;;12.30;47.30;;;12.45;50.62;101921.84;5041093;28;19947;-33
2024/01/30 00:56:43;;;;;;;;;;;12.30;47.30;;;12.45;50.54;101926.84;5044427;28;19996;-34
2024/01/30 00:59:11;;;;;;;;;;;12.30;47.30;;;12.41;49.88;101914.53;5037804;28;19972;-34
2024/01/30 01:01:39;;;;;;;;;;;12.30;47.30;;;12.45;49.64;101927.78;5034437;28;20348;-34
2024/01/30 01:04:09;;;;;;;;;;;12.30;47.30;;;12.44;50.08;101915.88;5035322;28;19964;-32
2024/01/30 01:06:37;;;;;;;;;;;12.30;47.30;;;12.45;49.92;101916.81;5034631;28;20352;-32
2024/01/30 01:09:04;;;;;;;;;;;12.30;47.30;;;12.44;49.75;101925.03;5026330;28;19925;-33
2024/01/30 01:11:32;;;;;;;;;;;12.30;47.30;;;12.45;50.08;101911.78;5034552;28;19971;-35
2024/01/30 01:14:00;;;;;;;;;;;12.30;47.30;;;12.45;49.44;101919.31;5033661;28;20109;-33
2024/01/30 01:16:28;;;;;;;;;;;12.30;47.40;;;12.35;49.62;101898.56;5034198;28;20024;-34
2024/01/30 01:18:56;;;;;;;;;;;12.30;47.30;;;12.45;49.65;101919.31;5033447;28;19955;-34
2024/01/30 01:21:25;;;;;;;;;;;12.30;47.30;;;12.44;49.77;101914.97;5034230;28;19925;-35
2024/01/30 01:23:54;;;;;;;;;;;12.30;47.30;;;12.44;50.13;101914.97;5032500;28;20023;-35
2024/01/30 01:26:22;;;;;;;;;;;12.30;47.30;;;12.43;50.30;101913.16;5033466;28;19925;-35
2024/01/30 01:28:50;;;;;;;;;;;12.30;47.30;;;12.40;49.51;101907.66;5033031;28;20313;-35
2024/01/30 01:31:18;;;;;;;;;;;12.30;47.30;;;12.44;49.45;101920.00;5033854;28;19933;-33
2024/01/30 01:33:46;;;;;;;;;;;12.30;47.30;;;12.43;50.03;101916.56;5032905;28;19925;-35
2024/01/30 01:36:14;;;;;;;;;;;12.30;47.30;;;12.43;50.31;101913.16;5034401;28;19932;-34
2024/01/30 01:38:44;;;;;;;;;;;12.30;47.30;;;12.44;49.94;101909.94;5034599;28;20021;-32
2024/01/30 01:41:11;;;;;;;;;;;12.30;47.30;;;12.44;50.18;101909.94;5033851;28;19929;-32
2024/01/30 01:43:39;;;;;;;;;;;12.30;47.30;;;12.42;49.81;101911.31;5025133;28;20016;-36
2024/01/30 01:46:08;;;;;;;;;;;12.30;47.30;;;12.40;49.32;101902.63;5034078;28;19960;-33
2024/01/30 01:48:36;;;;;;;;;;;12.30;47.30;;;12.44;50.21;101909.94;5033576;28;19926;-34
2024/01/30 01:51:04;;;;;;;;;;;12.30;47.30;;;12.36;50.08;101895.38;5033577;28;19925;-32
2024/01/30 01:53:32;;;;;;;;;;;12.30;47.30;;;12.44;49.65;101894.88;5032643;28;20442;-33
2024/01/30 01:56:01;;;;;;;;;;;12.20;47.20;;;12.39;49.90;101886.66;5033003;28;19925;-33
2024/01/30 01:58:29;;;;;;;;;;;12.30;47.30;;;12.37;49.97;101877.09;5033858;28;19929;-33
2024/01/30 02:00:57;;;;;;;;;;;12.30;47.30;;;12.44;49.92;101894.88;5033067;28;19925;-34
2024/01/30 02:03:25;;;;;;;;;;;12.20;47.20;;;12.39;50.53;101891.66;5032645;28;20296;-33
2024/01/30 02:05:54;;;;;;;;;;;12.20;47.20;;;12.42;49.79;101886.19;5033991;28;20380;-33
2024/01/30 02:08:21;;;;;;;;;;;12.30;47.30;;;12.42;50.54;101886.19;5032981;28;20033;-35
2024/01/30 02:10:49;;;;;;;;;;;12.20;47.20;;;12.41;49.74;101879.34;5032632;28;20385;-34
2024/01/30 02:13:19;;;;;;;;;;;12.30;47.30;;;12.41;49.57;101881.84;5032744;28;19967;-36
2024/01/30 02:15:50;;;;;;;;;;;12.20;47.30;;;12.41;49.42;101879.34;5032996;28;19925;-33
2024/01/30 02:18:18;;;;;;;;;;;12.20;47.30;;;12.43;49.40;101882.97;5032859;28;19925;-34
2024/01/30 02:20:46;;;;;;;;;;;12.20;47.20;;;12.40;49.80;101882.53;5033054;28;20347;-36
2024/01/30 02:23:15;;;;;;;;;;;12.20;47.20;;;12.39;50.24;101870.69;5032335;28;20023;-36
2024/01/30 02:25:45;;;;;;;;;;;12.20;47.30;;;12.40;50.39;101878.41;5033945;28;20011;-31
2024/01/30 02:28:13;;;;;;;;;;;12.20;47.30;;;12.41;49.39;101876.81;5033910;28;19925;-33
2024/01/30 02:30:41;;;;;;;;;;;12.20;47.20;;;12.41;49.47;101871.78;5034179;28;19948;-35
2024/01/30 02:33:09;;;;;;;;;;;12.30;47.30;;;12.40;49.87;101869.97;5032544;28;19931;-34
2024/01/30 02:35:37;;;;;;;;;;;12.20;47.20;;;12.41;49.66;101867.69;5033842;28;20401;-37
2024/01/30 02:38:05;;;;;;;;;;;12.20;47.20;;;12.40;49.80;101863.34;5034203;28;20387;-32
2024/01/30 02:40:34;;;;;;;;;;;12.20;47.20;;;12.39;49.81;101865.66;5035882;28;20013;-32
2024/01/30 02:43:02;;;;;;;;;;;12.20;47.20;;;12.38;50.10;101858.81;5043480;28;19929;-37
2024/01/30 02:45:31;;;;;;;;;;;12.20;47.20;;;12.40;49.48;101862.44;5046954;28;20369;-36
2024/01/30 02:47:59;;;;;;;;;;;12.20;47.20;;;12.40;49.74;101868.38;5043870;28;20339;-34
2024/01/30 02:50:27;;;;;;;;;;;12.30;47.30;;;12.41;49.79;101864.25;5038165;28;19967;-33
2024/01/30 02:52:55;;;;;;;;;;;12.20;47.20;;;12.41;50.66;101859.22;5038505;28;20476;-33
2024/01/30 02:55:23;;;;;;;;;;;12.20;47.20;;;12.35;49.43;101840.75;5037336;28;20021;-33
2024/01/30 02:57:52;;;;;;;;;;;12.20;47.20;;;12.41;50.02;101849.16;5036626;28;19956;-34
2024/01/30 03:00:20;;;;;;;;;;;12.20;47.20;;;12.40;49.67;101847.34;5037589;28;19979;-35
2024/01/30 03:02:48;;;;;;;;;;;12.20;47.20;;;12.41;49.52;101849.16;5035836;28;20008;-35
2024/01/30 03:05:16;;;;;;;;;;;12.20;47.20;;;12.36;49.80;101835.03;5038792;28;19929;-37
2024/01/30 03:07:44;;;;;;;;;;;12.20;47.20;;;12.42;49.47;101841.84;5036456;28;20024;-39
2024/01/30 03:10:12;;;;;;;;;;;12.20;47.20;;;12.43;50.05;101837.72;5028698;28;20356;-32
2024/01/30 03:12:40;;;;;;;;;;;12.20;47.20;;;12.42;50.09;101845.97;5035677;28;19932;-34
2024/01/30 03:15:10;;;;;;;;;;;12.20;47.20;;;12.39;50.09;101835.50;5035831;28;19979;-35
2024/01/30 03:17:38;;;;;;;;;;;12.30;47.30;;;12.37;49.40;101835.28;5036016;28;19983;-34
2024/01/30 03:20:07;;;;;;;;;;;12.20;47.20;;;12.41;50.08;101831.56;5036353;28;19983;-34
2024/01/30 03:22:35;;;;;;;;;;;12.20;47.20;;;12.41;49.62;101834.09;5035221;28;20387;-33
2024/01/30 03:25:04;;;;;;;;;;;12.20;47.20;;;12.33;50.40;101824.56;5035650;28;19929;-34
2024/01/30 03:27:32;;;;;;;;;;;12.20;47.20;;;12.39;50.06;101827.97;5036512;28;20289;-33
2024/01/30 03:30:00;;;;;;;;;;;12.20;47.20;;;12.40;50.04;101827.22;5035671;28;19932;-35
2024/01/30 03:32:29;;;;;;;;;;;12.20;47.20;;;12.39;50.03;101827.97;5035600;28;19931;-32
2024/01/30 03:34:58;;;;;;;;;;;12.20;47.20;;;12.39;50.02;101831.34;5035188;28;20021;-36
2024/01/30 03:37:26;;;;;;;;;;;12.20;47.20;;;12.40;50.03;101819.69;5036385;28;19972;-32
2024/01/30 03:39:54;;;;;;;;;;;12.20;47.20;;;12.39;50.38;101820.41;5035192;28;19936;-32
2024/01/30 03:42:22;;;;;;;;;;;12.20;47.20;;;12.35;49.55;101813.13;5035347;28;19925;-32
2024/01/30 03:44:51;;;;;;;;;;;12.20;47.20;;;12.38;50.54;101813.56;5034321;28;20016;-32
2024/01/30 03:47:19;;;;;;;;;;;12.20;47.20;;;12.38;50.06;101813.56;5035715;28;20359;-35
2024/01/30 03:49:49;;;;;;;;;;;12.20;47.20;;;12.29;49.66;101798.09;5035217;28;19932;-34
2024/01/30 03:52:17;;;;;;;;;;;12.20;47.20;;;12.38;49.24;101808.53;5034859;28;19925;-35
2024/01/30 03:54:45;;;;;;;;;;;12.20;47.20;;;12.35;50.72;101798.94;5034235;28;20410;-34
2024/01/30 03:57:13;;;;;;;;;;;12.20;47.20;;;12.37;50.06;101807.63;5035393;28;19933;-33
2024/01/30 03:59:42;;;;;;;;;;;12.20;47.20;;;12.37;49.91;101797.56;5036308;28;19925;-35
2024/01/30 04:02:11;;;;;;;;;;;12.20;47.20;;;12.38;49.62;101804.41;5035764;28;19933;-34
2024/01/30 04:04:39;;;;;;;;;;;12.20;47.20;;;12.38;50.01;101803.50;5037855;28;19925;-33
2024/01/30 04:07:08;;;;;;;;;;;12.20;47.20;;;12.37;49.73;101806.72;5036257;28;19991;-34
2024/01/30 04:09:36;;;;;;;;;;;12.20;47.20;;;12.28;49.52;101785.28;5036103;28;19925;-34
2024/01/30 04:12:04;;;;;;;;;;;12.20;47.20;;;12.37;50.40;101796.66;5036035;28;19967;-35
2024/01/30 04:14:32;;;;;;;;;;;12.20;47.20;;;12.36;50.03;101794.84;5036042;28;19931;-33
2024/01/30 04:17:00;;;;;;;;;;;12.20;47.20;;;12.37;49.66;101787.50;5036346;28;20433;-34
2024/01/30 04:19:28;;;;;;;;;;;12.20;47.20;;;12.34;50.16;101781.13;5035559;28;19948;-34
2024/01/30 04:21:56;;;;;;;;;;;12.20;47.20;;;12.36;49.83;101789.81;5035036;28;19932;-35
2024/01/30 04:24:27;;;;;;;;;;;12.20;47.20;;;12.35;49.62;101787.97;5034418;28;20266;-33
2024/01/30 04:26:55;;;;;;;;;;;12.20;47.20;;;12.36;49.40;101789.81;5036016;28;19929;-34
2024/01/30 04:29:23;;;;;;;;;;;12.20;47.20;;;12.34;49.57;101781.13;5037746;28;19931;-34
2024/01/30 04:31:51;;;;;;;;;;;12.20;47.20;;;12.37;49.78;101786.59;5037992;28;19925;-35
2024/01/30 04:34:19;;;;;;;;;;;12.20;47.20;;;12.33;50.34;101789.38;5037111;28;19925;-35
2024/01/30 04:36:47;;;;;;;;;;;12.20;47.20;;;12.34;49.97;101786.16;5038349;28;19948;-35
2024/01/30 04:39:15;;;;;;;;;;;12.20;47.20;;;12.37;50.41;101784.09;5029843;28;19929;-35
2024/01/30 04:41:44;;;;;;;;;;;12.20;47.20;;;12.37;49.92;101781.56;5038600;28;19925;-36
2024/01/30 04:44:12;;;;;;;;;;;12.20;47.20;;;12.38;49.37;101778.38;5038406;28;20377;-36
2024/01/30 04:46:40;;;;;;;;;;;12.20;47.20;;;12.38;49.43;101783.41;5037597;28;19964;-33
2024/01/30 04:49:08;;;;;;;;;;;12.20;47.20;;;12.38;49.90;101783.41;5037794;28;19987;-35
2024/01/30 04:51:36;;;;;;;;;;;12.20;47.20;;;12.37;49.74;101790.03;5037880;28;19932;-37
2024/01/30 04:54:04;;;;;;;;;;;12.20;47.20;;;12.24;49.72;101763.88;5037601;28;19960;-34
2024/01/30 04:56:32;;;;;;;;;;;12.20;47.20;;;12.38;49.62;101785.91;5038090;28;20008;-37
2024/01/30 04:59:02;;;;;;;;;;;12.20;47.20;;;12.38;50.52;101778.38;5037728;28;20032;-33
2024/01/30 05:01:30;;;;;;;;;;;12.20;47.20;;;12.37;50.06;101784.09;5034564;28;20016;-36
2024/01/30 05:03:58;;;;;;;;;;;12.20;47.20;;;12.39;49.34;101785.22;5035864;28;19924;-37
2024/01/30 05:06:26;;;;;;;;;;;12.20;47.20;;;12.38;49.91;101783.41;5034445;28;19929;-36
2024/01/30 05:08:54;;;;;;;;;;;12.20;47.20;;;12.38;49.60;101788.44;5033292;28;19925;-36
2024/01/30 05:11:22;;;;;;;;;;;12.20;47.20;;;12.38;49.88;101789.34;5033167;28;19965;-36
2024/01/30 05:13:50;;;;;;;;;;;12.20;47.20;;;12.38;49.16;101778.38;5032203;28;19965;-30
2024/01/30 05:16:20;;;;;;;;;;;12.20;47.20;;;12.39;50.52;101790.25;5025057;28;19972;-30
2024/01/30 05:18:48;;;;;;;;;;;12.20;47.20;;;12.38;50.02;101788.44;5032983;28;20012;-31
2024/01/30 05:21:16;;;;;;;;;;;12.20;47.20;;;12.39;49.73;101785.22;5046432;28;19929;-30
2024/01/30 05:23:44;;;;;;;;;;;12.20;47.20;;;12.38;50.21;101783.41;5045300;28;19932;-30
2024/01/30 05:26:12;;;;;;;;;;;12.20;47.20;;;12.31;49.93;101773.19;5034223;28;20102;-29
2024/01/30 05:28:40;;;;;;;;;;;12.20;47.20;;;12.36;49.89;101783.19;5032502;28;19925;-30
2024/01/30 05:31:07;;;;;;;;;;;12.20;47.20;;;12.37;49.64;101781.56;5032513;28;20024;-30
2024/01/30 05:33:37;;;;;;;;;;;12.20;47.20;;;12.35;49.50;101785.47;5031826;28;19929;-31
2024/01/30 05:36:05;;;;;;;;;;;12.20;47.20;;;12.36;49.54;101779.75;5032208;28;20008;-33
2024/01/30 05:38:33;;;;;;;;;;;12.20;47.20;;;12.35;50.13;101788.88;5032756;28;20392;-33
2024/01/30 05:41:01;;;;;;;;;;;12.20;47.20;;;12.35;49.39;101785.47;5032667;28;19944;-34
2024/01/30 05:43:29;;;;;;;;;;;12.20;47.20;;;12.32;49.25;101782.53;5032795;28;19969;-31
2024/01/30 05:45:57;;;;;;;;;;;12.20;47.20;;;12.35;49.56;101783.88;5032773;28;20016;-34
2024/01/30 05:48:25;;;;;;;;;;;12.20;47.20;;;12.34;50.39;101777.00;5032818;28;20259;-31
2024/01/30 05:50:54;;;;;;;;;;;12.20;47.20;;;12.35;49.94;101772.91;5032894;28;20020;-31
2024/01/30 05:53:23;;;;;;;;;;;12.20;47.20;;;12.34;49.69;101781.13;5024213;28;19948;-31
2024/01/30 05:55:50;;;;;;;;;;;12.20;47.20;;;12.35;50.03;101772.91;5032082;28;20007;-31
2024/01/30 05:58:18;;;;;;;;;;;12.20;47.20;;;12.34;49.40;101777.00;5032078;28;19925;-32
2024/01/30 06:00:48;;;;;;;;;;;12.20;47.20;;;12.35;49.48;101777.94;5032076;28;20310;-33
2024/01/30 06:03:16;;;;;;;;;;;12.20;47.20;;;12.31;49.50;101773.19;5032179;28;19935;-33
2024/01/30 06:05:44;;;;;;;;;;;12.20;47.20;;;12.28;49.46;101775.25;5033607;28;20377;-33
2024/01/30 06:08:13;;;;;;;;;;;12.20;47.20;;;12.33;49.74;101779.34;5033920;28;20460;-35
2024/01/30 06:10:42;;;;;;;;;;;12.20;47.20;;;12.33;49.25;101774.31;5037230;28;19925;-34
2024/01/30 06:13:09;;;;;;;;;;;12.20;47.20;;;12.33;49.66;101771.78;5036017;28;20024;-33
2024/01/30 06:15:37;;;;;;;;;;;12.20;47.20;;;12.33;50.40;101771.78;5042190;28;20373;-33
2024/01/30 06:18:05;;;;;;;;;;;12.20;47.20;;;12.33;49.35;101774.31;5036166;28;19931;-32
2024/01/30 06:20:33;;;;;;;;;;;12.20;47.20;;;12.32;50.27;101775.91;5036448;28;19979;-32
2024/01/30 06:23:01;;;;;;;;;;;12.20;47.20;;;12.33;50.44;101770.16;5035366;28;19943;-32
2024/01/30 06:25:31;;;;;;;;;;;12.20;47.20;;;12.34;49.87;101768.56;5036422;28;19929;-33
2024/01/30 06:27:59;;;;;;;;;;;12.20;47.20;;;12.34;49.98;101771.06;5036443;28;19979;-32
2024/01/30 06:30:27;;;;;;;;;;;12.20;47.20;;;12.28;49.84;101755.13;5037084;28;20012;-35
2024/01/30 06:32:55;;;;;;;;;;;12.20;47.20;;;12.34;49.90;101758.50;5041351;28;19929;-33
2024/01/30 06:35:23;;;;;;;;;;;12.20;47.20;;;12.35;50.30;101762.84;5040145;28;19932;-35
2024/01/30 06:37:51;;;;;;;;;;;12.20;47.20;;;12.34;49.88;101756.00;5037630;28;19960;-34
2024/01/30 06:40:19;;;;;;;;;;;12.20;47.20;;;12.32;50.05;101753.28;5036363;28;19987;-33
2024/01/30 06:42:48;;;;;;;;;;;12.20;47.20;;;12.35;49.28;101762.84;5036059;28;19929;-34
2024/01/30 06:45:16;;;;;;;;;;;12.20;47.20;;;12.31;49.77;101755.59;5035859;28;19964;-34
2024/01/30 06:47:44;;;;;;;;;;;12.20;47.20;;;12.34;50.28;101756.91;5035614;28;19925;-32
2024/01/30 06:50:12;;;;;;;;;;;12.20;47.20;;;12.34;49.47;101756.91;5035079;28;20399;-33
2024/01/30 06:52:40;;;;;;;;;;;12.20;47.20;;;12.34;49.80;101761.03;5029745;28;19925;-32
2024/01/30 06:55:09;;;;;;;;;;;12.10;47.10;;;12.34;49.68;101763.53;5033989;28;19925;-33
2024/01/30 06:57:37;;;;;;;;;;;12.20;47.20;;;12.35;49.48;101762.84;5035338;28;19929;-32
2024/01/30 07:00:08;;;;;;;;;;;12.20;47.20;;;12.31;49.30;101758.09;5035130;28;20362;-34
2024/01/30 07:02:36;;;;;;;;;;;12.20;47.20;;;12.30;49.61;101748.72;5034336;28;20020;-32
2024/01/30 07:05:04;;;;;;;;;;;12.20;47.20;;;12.31;50.08;101755.59;5039330;28;20012;-32
2024/01/30 07:07:32;;;;;;;;;;;12.20;47.20;;;12.31;49.99;101750.56;5034474;28;19936;-32
2024/01/30 07:10:01;;;;;;;;;;;12.20;47.20;;;12.34;49.52;101756.00;5034775;28;19929;-33
2024/01/30 07:12:29;;;;;;;;;;;12.20;47.20;;;12.33;49.60;101754.22;5035428;28;19936;-35
2024/01/30 07:14:59;;;;;;;;;;;12.20;47.20;;;12.34;49.64;101761.94;5034170;28;19983;-33
2024/01/30 07:17:28;;;;;;;;;;;12.20;47.20;;;12.34;49.46;101756.00;5035520;28;19932;-34
2024/01/30 07:19:56;;;;;;;;;;;12.20;47.20;;;12.34;49.70;101759.41;5034935;28;20011;-32
2024/01/30 07:22:24;;;;;;;;;;;12.10;47.10;;;12.35;49.43;101757.81;5027054;28;20011;-33
2024/01/30 07:24:52;;;;;;;;;;;12.20;47.20;;;12.34;49.77;101761.03;5033922;28;19932;-33
2024/01/30 07:27:21;;;;;;;;;;;12.20;47.20;;;12.33;50.19;101751.69;5033432;28;19925;-32
2024/01/30 07:29:49;;;;;;;;;;;12.20;47.20;;;12.34;49.40;101756.91;5034689;28;19933;-35
2024/01/30 07:32:18;;;;;;;;;;;12.20;47.20;;;12.24;49.66;101742.84;5034424;28;19925;-35
2024/01/30 07:34:47;;;;;;;;;;;12.10;47.10;;;12.34;49.46;101766.97;5034011;28;20020;-33
2024/01/30 07:37:33;;;;;;;;;;;12.10;47.10;;;12.33;49.46;101766.78;5027761;28;19925;-35
2024/01/30 07:40:02;;;;;;;;;;;12.10;47.10;;;12.34;49.41;101763.53;5034161;28;19925;-35
2024/01/30 07:42:31;;;;;;;;;;;12.10;47.10;;;12.32;49.96;101763.34;5034295;28;20012;-32
2024/01/30 07:44:59;;;;;;;;;;;12.10;47.10;;;12.31;49.89;101765.63;5033954;28;19929;-33
2024/01/30 07:47:27;;;;;;;;;;;12.20;47.20;;;12.33;50.26;101769.28;5026132;28;19925;-33
2024/01/30 07:49:56;;;;;;;;;;;12.10;47.10;;;12.32;49.77;101763.34;5034714;28;19979;-33
2024/01/30 07:52:24;;;;;;;;;;;12.10;47.10;;;12.32;50.48;101773.41;5034297;28;19925;-33
2024/01/30 07:54:52;;;;;;;;;;;12.20;47.20;;;12.32;49.79;101767.47;5034017;28;20011;-34
2024/01/30 07:57:20;;;;;;;;;;;12.10;47.20;;;12.33;49.69;101769.28;5034798;28;20427;-35
2024/01/30 07:59:48;;;;;;;;;;;12.10;47.20;;;12.32;50.14;101767.47;5025810;28;19983;-33
2024/01/30 08:02:16;;;;;;;;;;;12.10;47.20;;;12.32;50.47;101764.94;5033885;28;20004;-34
2024/01/30 08:04:48;;;;;;;;;;;12.10;47.20;;;12.32;49.39;101767.47;5030145;28;20393;-36
2024/01/30 08:07:18;;;;;;;;;;;12.10;47.10;;;12.32;49.82;101757.41;5033251;28;19943;-36
2024/01/30 08:09:46;;;;;;;;;;;12.10;47.10;;;12.32;49.52;101757.41;5033543;28;19972;-36
2024/01/30 08:12:14;;;;;;;;;;;12.10;47.20;;;12.32;49.52;101757.41;5033538;28;19925;-35
2024/01/30 08:14:42;;;;;;;;;;;12.10;47.10;;;12.33;49.90;101754.22;5032512;28;19937;-35
2024/01/30 08:17:10;;;;;;;;;;;12.20;47.30;;;12.16;49.97;101728.28;5033068;28;20385;-35
2024/01/30 08:19:38;;;;;;;;;;;12.20;47.20;;;12.35;49.90;101757.81;5031447;28;20371;-35
2024/01/30 08:22:06;;;;;;;;;;;12.20;47.20;;;12.35;49.66;101757.81;5033212;28;19925;-35
2024/01/30 08:24:35;;;;;;;;;;;12.20;47.20;;;12.34;49.99;101761.03;5032613;28;19925;-36
2024/01/30 08:27:05;;;;;;;;;;;12.20;47.20;;;12.36;50.24;101764.66;5033158;28;20365;-36
2024/01/30 08:29:32;;;;;;;;;;;12.20;47.20;;;12.36;50.58;101757.13;5033040;28;19925;-36
2024/01/30 08:32:00;;;;;;;;;;;12.20;47.20;;;12.36;49.71;101759.66;5034597;28;20012;-36
2024/01/30 08:34:28;;;;;;;;;;;12.20;47.20;;;12.37;50.05;101771.53;5026977;28;19976;-36
2024/01/30 08:36:56;;;;;;;;;;;12.20;47.20;;;12.37;50.07;101774.03;5027583;28;19983;-36
2024/01/30 08:39:24;;;;;;;;;;;12.20;47.20;;;12.39;49.85;101782.72;5033707;28;19929;-35
2024/01/30 08:41:54;;;;;;;;;;;12.20;47.20;;;12.37;49.70;101787.50;5033000;28;19929;-35
2024/01/30 08:44:21;;;;;;;;;;;12.20;47.20;;;12.39;50.02;101780.19;5032369;28;19956;-36
2024/01/30 08:46:50;;;;;;;;;;;12.20;47.20;;;12.39;49.74;101785.22;5032571;28;19983;-36
2024/01/30 08:49:18;;;;;;;;;;;12.20;47.20;;;12.38;49.44;101783.41;5032736;28;20384;-37
2024/01/30 08:51:47;;;;;;;;;;;12.20;47.20;;;12.39;50.24;101785.22;5033649;28;19926;-36
2024/01/30 08:54:15;;;;;;;;;;;12.20;47.20;;;12.36;49.53;101775.63;5032984;28;19925;-36
2024/01/30 08:56:43;;;;;;;;;;;12.20;47.20;;;12.39;49.64;101786.09;5034356;28;20385;-35
2024/01/30 08:59:12;;;;;;;;;;;12.20;47.20;;;12.41;50.00;101793.88;5034310;28;19932;-35
2024/01/30 09:01:40;;;;;;;;;;;12.20;47.20;;;12.42;50.06;101780.59;5033187;28;19976;-36
2024/01/30 09:04:22;;;;;;;;;;;12.20;47.20;;;12.43;49.17;101777.41;5032589;28;19929;-36
2024/01/30 09:06:53;;;;;;;;;;;12.20;47.20;;;12.44;50.00;101785.19;5032573;28;19948;-36
2024/01/30 09:09:21;;;;;;;;;;;12.20;47.20;;;12.44;49.64;101784.25;5032277;28;19948;-36
2024/01/30 09:11:49;;;;;;;;;;;12.20;47.10;;;12.44;49.96;101785.19;5032233;28;19925;-35
2024/01/30 09:14:19;;;;;;;;;;;12.20;47.20;;;11.74;50.03;101658.78;5031748;28;19929;-35
2024/01/30 09:16:48;;;;;;;;;;;12.20;47.20;;;12.46;49.86;101782.84;5032533;28;19925;-34
2024/01/30 09:19:16;;;;;;;;;;;12.30;47.20;;;12.46;49.73;101781.25;5032101;28;20373;-36
2024/01/30 09:21:45;;;;;;;;;;;12.30;47.20;;;12.45;49.60;101786.09;5032306;28;19925;-36
2024/01/30 09:24:12;;;;;;;;;;;12.30;47.20;;;12.44;49.69;101784.25;5031579;28;19925;-35
2024/01/30 09:26:40;;;;;;;;;;;12.30;47.20;;;12.47;49.43;101779.66;5033058;28;19925;-36
2024/01/30 09:29:08;;;;;;;;;;;12.30;47.30;;;12.48;49.90;101782.38;5032390;28;19929;-36
2024/01/30 09:31:38;;;;;;;;;;;12.30;47.30;;;12.48;49.54;101782.38;5032259;28;20005;-35
2024/01/30 09:34:06;;;;;;;;;;;12.30;47.20;;;12.49;50.00;101785.81;5031315;28;20010;-35
2024/01/30 09:36:34;;;;;;;;;;;12.30;47.20;;;12.48;49.65;101782.38;5031858;28;19925;-35
2024/01/30 09:39:03;;;;;;;;;;;12.30;47.20;;;12.49;49.44;101783.28;5032206;28;19929;-35
2024/01/30 09:41:31;;;;;;;;;;;12.30;47.20;;;12.50;49.49;101792.66;5032001;28;19929;-36
2024/01/30 09:43:59;;;;;;;;;;;12.30;47.20;;;12.50;50.37;101790.16;5031331;28;19931;-36
2024/01/30 09:46:28;;;;;;;;;;;12.30;47.20;;;12.51;49.49;101791.97;5031787;28;20020;-35
2024/01/30 09:48:58;;;;;;;;;;;12.30;47.20;;;12.47;49.44;101779.66;5031961;28;20023;-36
2024/01/30 09:51:26;;;;;;;;;;;12.30;47.20;;;12.51;49.59;101786.03;5030945;28;19929;-36
2024/01/30 09:53:54;;;;;;;;;;;12.30;47.20;;;12.52;50.22;101793.75;5031320;28;19932;-36
2024/01/30 09:56:22;;;;;;;;;;;12.30;47.20;;;12.53;49.69;101795.59;5031608;28;19979;-36
2024/01/30 09:58:50;;;;;;;;;;;12.30;47.80;;;12.53;49.86;101790.56;5032000;28;20361;-36
2024/01/30 10:01:18;;;;;;;;;;;12.30;47.20;;;12.54;49.49;101792.38;5031875;28;20323;-36
2024/01/30 10:03:47;;;;;;;;;;;12.30;47.20;;;12.53;49.95;101798.09;5031934;28;19936;-36
2024/01/30 10:06:17;;;;;;;;;;;12.30;47.10;;;12.54;49.66;101794.00;5031788;28;19932;-36
2024/01/30 10:08:46;;;;;;;;;;;12.30;47.20;;;12.56;50.21;101796.03;5031762;28;20428;-36
2024/01/30 10:11:14;;;;;;;;;;;12.40;47.30;;;12.51;49.58;101791.97;5032640;28;20007;-35
2024/01/30 10:13:42;;;;;;;;;;;12.40;47.20;;;12.56;49.81;101801.06;5035957;28;19975;-36
2024/01/30 10:16:10;;;;;;;;;;;12.40;47.20;;;12.48;49.22;101787.41;5036252;28;19995;-35
2024/01/30 10:18:38;;;;;;;;;;;12.40;47.20;;;12.54;49.80;101802.44;5035784;28;19925;-37
2024/01/30 10:21:10;;;;;;;;;;;12.30;47.10;;;12.58;49.57;101799.69;5036255;28;19925;-36
2024/01/30 10:23:38;;;;;;;;;;;12.30;47.10;;;12.54;49.89;101797.41;5038012;28;20021;-36
2024/01/30 10:26:06;;;;;;;;;;;12.40;47.20;;;12.57;49.32;101807.91;5034886;28;19925;-36
2024/01/30 10:28:34;;;;;;;;;;;12.40;47.20;;;12.57;49.88;101805.41;5024214;28;19925;-36
2024/01/30 10:31:03;;;;;;;;;;;12.40;47.20;;;12.59;49.52;101806.50;5031726;28;19949;-36
2024/01/30 10:33:34;;;;;;;;;;;12.40;47.20;;;12.54;49.28;101789.88;5030778;28;19995;-36
2024/01/30 10:36:03;;;;;;;;;;;12.40;47.20;;;12.59;50.04;101801.47;5031406;28;20361;-36
2024/01/30 10:38:31;;;;;;;;;;;12.40;47.20;;;12.58;49.78;101799.69;5031443;28;19947;-35
2024/01/30 10:41:01;;;;;;;;;;;12.40;47.30;;;12.60;49.67;101792.31;5031172;28;20330;-36
2024/01/30 10:43:31;;;;;;;;;;;12.40;47.20;;;12.58;49.13;101791.22;5030540;28;19936;-37
2024/01/30 10:46:04;;;;;;;;;;;12.40;47.30;;;12.61;50.48;101792.56;5031497;28;19972;-36
2024/01/30 10:48:32;;;;;;;;;;;12.40;47.30;;;12.61;49.76;101785.00;5031039;28;20278;-37
2024/01/30 10:51:00;;;;;;;;;;;12.40;47.30;;;12.62;49.47;101783.41;5031456;28;19925;-37
2024/01/30 10:53:28;;;;;;;;;;;12.40;47.30;;;12.62;50.28;101781.81;5030973;28;19925;-37
2024/01/30 10:56:00;;;;;;;;;;;12.40;47.30;;;12.63;49.95;101783.63;5031093;28;19935;-35
2024/01/30 10:58:28;;;;;;;;;;;12.40;47.30;;;12.64;49.94;101784.53;5031255;28;19952;-37
2024/01/30 11:00:56;;;;;;;;;;;12.40;47.30;;;12.42;49.86;101741.31;5031256;28;19967;-37
2024/01/30 11:03:25;;;;;;;;;;;12.50;47.40;;;12.62;49.38;101771.75;5034655;28;20376;-37
2024/01/30 11:05:53;;;;;;;;;;;12.40;47.30;;;12.64;49.20;101775.41;5034658;28;19975;-37
2024/01/30 11:08:23;;;;;;;;;;;12.50;47.40;;;12.66;49.55;101768.94;5034502;28;19971;-36
2024/01/30 11:10:56;;;;;;;;;;;12.50;47.40;;;12.66;49.94;101779.00;5034783;28;20020;-36
2024/01/30 11:13:27;;;;;;;;;;;12.50;47.40;;;12.66;49.95;101773.97;5033805;28;20368;-36
2024/01/30 11:15:55;;;;;;;;;;;12.50;47.40;;;12.68;49.64;101764.16;5034918;28;20300;-36